sensor_id;sensor_type;location;lat;lon;timestamp;P1;durP1;ratioP1;P2;durP2;ratioP2
38162;SDS011;23977;53.078;18.248;2023-05-10T00:01:13;6.40;;;3.35;;
38162;SDS011;23977;53.078;18.248;2023-05-10T00:04:50;5.32;;;3.03;;
38162;SDS011;23977;53.078;18.248;2023-05-10T00:08:21;6.53;;;3.47;;
38162;SDS011;23977;53.078;18.248;2023-05-10T00:12:41;6.03;;;3.30;;
38162;SDS011;23977;53.078;18.248;2023-05-10T00:16:17;6.68;;;3.35;;
38162;SDS011;23977;53.078;18.248;2023-05-10T00:23:30;6.25;;;3.42;;
38162;SDS011;23977;53.078;18.248;2023-05-10T00:29:03;6.40;;;3.60;;
38162;SDS011;23977;53.078;18.248;2023-05-10T00:31:36;6.18;;;3.70;;
38162;SDS011;23977;53.078;18.248;2023-05-10T00:34:06;6.72;;;3.35;;
38162;SDS011;23977;53.078;18.248;2023-05-10T00:36:48;9.20;;;3.88;;
38162;SDS011;23977;53.078;18.248;2023-05-10T00:39:21;7.47;;;3.78;;
38162;SDS011;23977;53.078;18.248;2023-05-10T00:42:03;6.00;;;3.70;;
38162;SDS011;23977;53.078;18.248;2023-05-10T00:44:31;6.43;;;3.50;;
38162;SDS011;23977;53.078;18.248;2023-05-10T00:47:28;6.25;;;3.55;;
38162;SDS011;23977;53.078;18.248;2023-05-10T00:50:13;5.90;;;3.80;;
38162;SDS011;23977;53.078;18.248;2023-05-10T00:52:50;6.85;;;4.05;;
38162;SDS011;23977;53.078;18.248;2023-05-10T00:55:45;7.25;;;4.00;;
38162;SDS011;23977;53.078;18.248;2023-05-10T00:58:52;7.68;;;4.20;;
38162;SDS011;23977;53.078;18.248;2023-05-10T01:01:27;6.30;;;3.83;;
38162;SDS011;23977;53.078;18.248;2023-05-10T01:04:07;5.97;;;4.18;;
38162;SDS011;23977;53.078;18.248;2023-05-10T01:06:41;6.35;;;3.88;;
38162;SDS011;23977;53.078;18.248;2023-05-10T01:09:12;6.80;;;4.00;;
38162;SDS011;23977;53.078;18.248;2023-05-10T01:11:48;8.05;;;4.07;;
38162;SDS011;23977;53.078;18.248;2023-05-10T01:14:31;8.48;;;4.20;;
38162;SDS011;23977;53.078;18.248;2023-05-10T01:18:04;6.60;;;3.80;;
38162;SDS011;23977;53.078;18.248;2023-05-10T01:20:43;6.72;;;4.20;;
38162;SDS011;23977;53.078;18.248;2023-05-10T01:29:47;8.27;;;3.92;;
38162;SDS011;23977;53.078;18.248;2023-05-10T01:35:43;7.75;;;4.05;;
38162;SDS011;23977;53.078;18.248;2023-05-10T01:38:51;7.70;;;4.10;;
38162;SDS011;23977;53.078;18.248;2023-05-10T01:41:40;6.55;;;3.85;;
38162;SDS011;23977;53.078;18.248;2023-05-10T01:44:54;6.95;;;4.10;;
38162;SDS011;23977;53.078;18.248;2023-05-10T01:50:12;6.80;;;3.78;;
38162;SDS011;23977;53.078;18.248;2023-05-10T01:52:47;5.80;;;3.45;;
38162;SDS011;23977;53.078;18.248;2023-05-10T01:55:23;6.32;;;3.83;;
38162;SDS011;23977;53.078;18.248;2023-05-10T01:57:55;7.25;;;3.92;;
38162;SDS011;23977;53.078;18.248;2023-05-10T02:00:43;6.90;;;4.30;;
38162;SDS011;23977;53.078;18.248;2023-05-10T02:03:15;7.07;;;3.90;;
38162;SDS011;23977;53.078;18.248;2023-05-10T02:06:09;7.22;;;3.95;;
38162;SDS011;23977;53.078;18.248;2023-05-10T02:09:08;9.00;;;4.13;;
38162;SDS011;23977;53.078;18.248;2023-05-10T02:16:27;8.27;;;3.97;;
38162;SDS011;23977;53.078;18.248;2023-05-10T02:19:43;6.15;;;3.80;;
38162;SDS011;23977;53.078;18.248;2023-05-10T02:23:45;6.60;;;3.75;;
38162;SDS011;23977;53.078;18.248;2023-05-10T02:26:57;6.80;;;4.07;;
38162;SDS011;23977;53.078;18.248;2023-05-10T02:30:52;9.43;;;4.15;;
38162;SDS011;23977;53.078;18.248;2023-05-10T02:41:34;8.73;;;3.92;;
38162;SDS011;23977;53.078;18.248;2023-05-10T02:48:46;8.38;;;3.88;;
38162;SDS011;23977;53.078;18.248;2023-05-10T02:52:12;6.50;;;4.07;;
38162;SDS011;23977;53.078;18.248;2023-05-10T02:56:12;8.20;;;3.83;;
38162;SDS011;23977;53.078;18.248;2023-05-10T02:59:34;7.25;;;4.20;;
38162;SDS011;23977;53.078;18.248;2023-05-10T03:02:00;7.35;;;4.25;;
38162;SDS011;23977;53.078;18.248;2023-05-10T03:04:27;7.32;;;3.97;;
38162;SDS011;23977;53.078;18.248;2023-05-10T03:06:53;8.30;;;4.30;;
38162;SDS011;23977;53.078;18.248;2023-05-10T03:09:18;7.70;;;4.18;;
38162;SDS011;23977;53.078;18.248;2023-05-10T03:14:42;7.70;;;3.75;;
38162;SDS011;23977;53.078;18.248;2023-05-10T03:19:53;7.85;;;3.50;;
38162;SDS011;23977;53.078;18.248;2023-05-10T03:25:15;7.32;;;3.90;;
38162;SDS011;23977;53.078;18.248;2023-05-10T03:27:44;7.07;;;3.72;;
38162;SDS011;23977;53.078;18.248;2023-05-10T03:30:11;8.20;;;4.03;;
38162;SDS011;23977;53.078;18.248;2023-05-10T03:32:38;7.80;;;4.03;;
38162;SDS011;23977;53.078;18.248;2023-05-10T03:35:11;6.28;;;3.55;;
38162;SDS011;23977;53.078;18.248;2023-05-10T03:37:41;6.05;;;3.72;;
38162;SDS011;23977;53.078;18.248;2023-05-10T03:40:07;7.85;;;3.97;;
38162;SDS011;23977;53.078;18.248;2023-05-10T03:42:34;5.53;;;3.40;;
38162;SDS011;23977;53.078;18.248;2023-05-10T03:44:59;7.28;;;3.80;;
38162;SDS011;23977;53.078;18.248;2023-05-10T03:47:25;6.38;;;3.63;;
38162;SDS011;23977;53.078;18.248;2023-05-10T03:49:51;7.07;;;4.00;;
38162;SDS011;23977;53.078;18.248;2023-05-10T03:52:17;9.77;;;3.92;;
38162;SDS011;23977;53.078;18.248;2023-05-10T03:54:43;7.38;;;3.55;;
38162;SDS011;23977;53.078;18.248;2023-05-10T03:57:09;7.72;;;3.85;;
38162;SDS011;23977;53.078;18.248;2023-05-10T03:59:35;8.13;;;3.80;;
38162;SDS011;23977;53.078;18.248;2023-05-10T04:02:01;6.45;;;3.72;;
38162;SDS011;23977;53.078;18.248;2023-05-10T04:04:27;9.05;;;3.60;;
38162;SDS011;23977;53.078;18.248;2023-05-10T04:06:53;8.45;;;4.05;;
38162;SDS011;23977;53.078;18.248;2023-05-10T04:09:20;5.32;;;3.40;;
38162;SDS011;23977;53.078;18.248;2023-05-10T04:11:46;6.03;;;3.58;;
38162;SDS011;23977;53.078;18.248;2023-05-10T04:14:11;5.97;;;3.70;;
38162;SDS011;23977;53.078;18.248;2023-05-10T04:16:37;6.38;;;3.45;;
38162;SDS011;23977;53.078;18.248;2023-05-10T04:19:02;5.85;;;3.47;;
38162;SDS011;23977;53.078;18.248;2023-05-10T04:21:29;5.20;;;3.40;;
38162;SDS011;23977;53.078;18.248;2023-05-10T04:23:54;7.68;;;3.78;;
38162;SDS011;23977;53.078;18.248;2023-05-10T04:26:20;6.18;;;3.50;;
38162;SDS011;23977;53.078;18.248;2023-05-10T04:28:46;6.63;;;3.60;;
38162;SDS011;23977;53.078;18.248;2023-05-10T04:31:12;6.15;;;3.70;;
38162;SDS011;23977;53.078;18.248;2023-05-10T04:33:38;6.45;;;3.53;;
38162;SDS011;23977;53.078;18.248;2023-05-10T04:36:04;8.02;;;3.67;;
38162;SDS011;23977;53.078;18.248;2023-05-10T04:38:30;7.60;;;3.40;;
38162;SDS011;23977;53.078;18.248;2023-05-10T04:41:09;6.93;;;3.72;;
38162;SDS011;23977;53.078;18.248;2023-05-10T04:43:36;6.95;;;3.55;;
38162;SDS011;23977;53.078;18.248;2023-05-10T04:46:03;9.40;;;3.47;;
38162;SDS011;23977;53.078;18.248;2023-05-10T04:48:30;6.38;;;3.28;;
38162;SDS011;23977;53.078;18.248;2023-05-10T04:50:57;7.00;;;3.40;;
38162;SDS011;23977;53.078;18.248;2023-05-10T04:53:22;9.02;;;3.78;;
38162;SDS011;23977;53.078;18.248;2023-05-10T04:55:48;8.00;;;3.53;;
38162;SDS011;23977;53.078;18.248;2023-05-10T04:58:14;7.05;;;3.40;;
38162;SDS011;23977;53.078;18.248;2023-05-10T05:00:40;8.38;;;3.45;;
38162;SDS011;23977;53.078;18.248;2023-05-10T05:03:05;12.57;;;4.10;;
38162;SDS011;23977;53.078;18.248;2023-05-10T05:05:31;5.75;;;3.22;;
38162;SDS011;23977;53.078;18.248;2023-05-10T05:07:57;6.00;;;3.00;;
38162;SDS011;23977;53.078;18.248;2023-05-10T05:10:22;5.60;;;3.20;;
38162;SDS011;23977;53.078;18.248;2023-05-10T05:12:48;5.82;;;3.30;;
38162;SDS011;23977;53.078;18.248;2023-05-10T05:15:13;9.38;;;3.30;;
38162;SDS011;23977;53.078;18.248;2023-05-10T05:17:41;6.03;;;3.10;;
38162;SDS011;23977;53.078;18.248;2023-05-10T05:20:07;8.70;;;3.47;;
38162;SDS011;23977;53.078;18.248;2023-05-10T05:22:33;5.85;;;3.20;;
38162;SDS011;23977;53.078;18.248;2023-05-10T05:24:59;7.25;;;3.20;;
38162;SDS011;23977;53.078;18.248;2023-05-10T05:27:25;7.07;;;3.08;;
38162;SDS011;23977;53.078;18.248;2023-05-10T05:29:53;6.55;;;3.22;;
38162;SDS011;23977;53.078;18.248;2023-05-10T05:32:19;7.03;;;2.90;;
38162;SDS011;23977;53.078;18.248;2023-05-10T05:34:45;7.93;;;3.00;;
38162;SDS011;23977;53.078;18.248;2023-05-10T05:37:17;6.60;;;2.60;;
38162;SDS011;23977;53.078;18.248;2023-05-10T05:39:45;6.57;;;2.75;;
38162;SDS011;23977;53.078;18.248;2023-05-10T05:42:11;6.15;;;3.00;;
38162;SDS011;23977;53.078;18.248;2023-05-10T05:44:37;9.93;;;3.33;;
38162;SDS011;23977;53.078;18.248;2023-05-10T05:47:03;6.93;;;2.83;;
38162;SDS011;23977;53.078;18.248;2023-05-10T05:49:29;6.90;;;2.67;;
38162;SDS011;23977;53.078;18.248;2023-05-10T05:51:58;9.63;;;2.88;;
38162;SDS011;23977;53.078;18.248;2023-05-10T05:54:25;6.32;;;2.80;;
38162;SDS011;23977;53.078;18.248;2023-05-10T05:56:53;7.78;;;2.50;;
38162;SDS011;23977;53.078;18.248;2023-05-10T05:59:22;6.25;;;2.65;;
38162;SDS011;23977;53.078;18.248;2023-05-10T06:01:48;8.15;;;2.70;;
38162;SDS011;23977;53.078;18.248;2023-05-10T06:04:14;6.47;;;2.78;;
38162;SDS011;23977;53.078;18.248;2023-05-10T06:06:40;6.30;;;2.65;;
38162;SDS011;23977;53.078;18.248;2023-05-10T06:09:06;8.15;;;2.90;;
38162;SDS011;23977;53.078;18.248;2023-05-10T06:11:32;4.53;;;2.28;;
38162;SDS011;23977;53.078;18.248;2023-05-10T06:13:58;6.40;;;2.60;;
38162;SDS011;23977;53.078;18.248;2023-05-10T06:16:24;6.47;;;2.50;;
38162;SDS011;23977;53.078;18.248;2023-05-10T06:18:50;5.00;;;2.33;;
38162;SDS011;23977;53.078;18.248;2023-05-10T06:21:17;7.95;;;2.35;;
38162;SDS011;23977;53.078;18.248;2023-05-10T06:23:43;7.03;;;2.30;;
38162;SDS011;23977;53.078;18.248;2023-05-10T06:26:09;6.38;;;2.30;;
38162;SDS011;23977;53.078;18.248;2023-05-10T06:28:36;5.57;;;2.13;;
38162;SDS011;23977;53.078;18.248;2023-05-10T06:31:06;5.18;;;2.10;;
38162;SDS011;23977;53.078;18.248;2023-05-10T06:42:24;4.93;;;1.95;;
38162;SDS011;23977;53.078;18.248;2023-05-10T06:49:26;4.65;;;2.13;;
38162;SDS011;23977;53.078;18.248;2023-05-10T06:52:57;3.65;;;1.70;;
38162;SDS011;23977;53.078;18.248;2023-05-10T06:56:27;4.43;;;2.15;;
38162;SDS011;23977;53.078;18.248;2023-05-10T07:15:20;4.97;;;1.90;;
38162;SDS011;23977;53.078;18.248;2023-05-10T07:17:50;8.40;;;2.53;;
38162;SDS011;23977;53.078;18.248;2023-05-10T07:20:18;4.50;;;2.10;;
38162;SDS011;23977;53.078;18.248;2023-05-10T07:22:58;5.32;;;1.90;;
38162;SDS011;23977;53.078;18.248;2023-05-10T07:25:31;5.53;;;1.70;;
38162;SDS011;23977;53.078;18.248;2023-05-10T07:27:57;5.70;;;1.80;;
38162;SDS011;23977;53.078;18.248;2023-05-10T07:30:23;11.18;;;2.33;;
38162;SDS011;23977;53.078;18.248;2023-05-10T07:32:51;5.80;;;1.88;;
38162;SDS011;23977;53.078;18.248;2023-05-10T07:38:58;6.95;;;2.00;;
38162;SDS011;23977;53.078;18.248;2023-05-10T07:42:29;3.97;;;1.60;;
38162;SDS011;23977;53.078;18.248;2023-05-10T07:44:59;8.23;;;2.00;;
38162;SDS011;23977;53.078;18.248;2023-05-10T07:47:34;5.38;;;1.83;;
38162;SDS011;23977;53.078;18.248;2023-05-10T07:50:04;5.45;;;1.63;;
38162;SDS011;23977;53.078;18.248;2023-05-10T07:52:37;6.93;;;2.03;;
38162;SDS011;23977;53.078;18.248;2023-05-10T07:58:07;9.02;;;1.75;;
38162;SDS011;23977;53.078;18.248;2023-05-10T08:00:37;5.07;;;2.00;;
38162;SDS011;23977;53.078;18.248;2023-05-10T08:03:07;5.30;;;1.80;;
38162;SDS011;23977;53.078;18.248;2023-05-10T08:05:39;7.38;;;1.85;;
38162;SDS011;23977;53.078;18.248;2023-05-10T08:08:16;6.38;;;1.75;;
38162;SDS011;23977;53.078;18.248;2023-05-10T08:11:14;5.88;;;1.65;;
38162;SDS011;23977;53.078;18.248;2023-05-10T08:14:06;7.40;;;1.80;;
38162;SDS011;23977;53.078;18.248;2023-05-10T08:27:35;8.90;;;1.95;;
38162;SDS011;23977;53.078;18.248;2023-05-10T08:30:00;4.50;;;1.42;;
38162;SDS011;23977;53.078;18.248;2023-05-10T08:32:30;7.72;;;1.70;;
38162;SDS011;23977;53.078;18.248;2023-05-10T08:38:18;7.78;;;1.75;;
38162;SDS011;23977;53.078;18.248;2023-05-10T08:40:44;8.25;;;1.85;;
38162;SDS011;23977;53.078;18.248;2023-05-10T08:46:51;4.75;;;1.67;;
38162;SDS011;23977;53.078;18.248;2023-05-10T08:49:20;5.93;;;1.90;;
38162;SDS011;23977;53.078;18.248;2023-05-10T09:02:07;9.57;;;2.00;;
38162;SDS011;23977;53.078;18.248;2023-05-10T09:04:37;7.60;;;1.80;;
38162;SDS011;23977;53.078;18.248;2023-05-10T09:07:02;6.03;;;1.70;;
38162;SDS011;23977;53.078;18.248;2023-05-10T09:09:28;5.50;;;1.80;;
38162;SDS011;23977;53.078;18.248;2023-05-10T09:11:54;8.07;;;1.70;;
38162;SDS011;23977;53.078;18.248;2023-05-10T09:14:20;11.20;;;2.15;;
38162;SDS011;23977;53.078;18.248;2023-05-10T09:16:48;5.43;;;1.70;;
38162;SDS011;23977;53.078;18.248;2023-05-10T09:34:45;7.15;;;1.80;;
38162;SDS011;23977;53.078;18.248;2023-05-10T11:52:09;8.32;;;2.35;;
38162;SDS011;23977;53.078;18.248;2023-05-10T11:55:04;6.35;;;2.17;;
38162;SDS011;23977;53.078;18.248;2023-05-10T12:01:52;5.70;;;2.10;;
38162;SDS011;23977;53.078;18.248;2023-05-10T12:10:40;8.25;;;2.30;;
38162;SDS011;23977;53.078;18.248;2023-05-10T12:13:18;6.35;;;2.40;;
38162;SDS011;23977;53.078;18.248;2023-05-10T12:16:16;12.77;;;2.15;;
38162;SDS011;23977;53.078;18.248;2023-05-10T12:36:43;6.75;;;2.03;;
38162;SDS011;23977;53.078;18.248;2023-05-10T12:39:53;9.60;;;2.00;;
38162;SDS011;23977;53.078;18.248;2023-05-10T13:10:43;11.68;;;2.40;;
38162;SDS011;23977;53.078;18.248;2023-05-10T13:31:25;9.57;;;2.42;;
